Darlington, New Jersey
Current Conditions -  °F | °C
As of 8:51 AM on Sunday 23 Nov 2014 (Local Time) from KTEB Reporting Station
Overcast Overcast  
Wind Chill:   Ceiling: 10000
Heat Index:   Visibility: 10mi
Dew Point: -4°   Wind: 6mph
Humidity: 45%   Direction: 190°S
Pressure: 30.2"   Gusts: NA
Location:  41.0594°N, 74.1457°W
Report Text: KTEB 231351Z 19005KT 10SM OVC100 07/M04 A3020 RMK AO2 SLP228 T00671044
Loading
Personal Weather Stations






























Interactive Weather Map New forecast layout! Learn more

10-Day Weather Forecast

Advertisements
Track Severe Weather on mobile